UKV5025 ENBR-ENSB
Flight info
| Callsign | UKV5025 |
|---|---|
| Flight time | N/A |
| Altitude | 37000 |
| Route | INTUM DCT TABEV DCT 70N009E 75N012E DCT SUSES |
| Aircraft | E190/M-SDE3GILORVW/S |
Departure
| Time | N/A |
|---|---|
| Airport | Bergen Airport, Flesland (ENBR) |
Arrival
| Time | 2026-05-01 14:24 |
|---|---|
| Airport | Svalbard Airport, Longyear (ENSB) |
| Time | Latitude | Longitude | Altitude | Speed | Heading |
|---|---|---|---|---|---|
| 2026-05-01 13:08 | 69.77257 | 8.89017 | 36739 ft | 488 kts | 4° |
| 2026-05-01 13:08 | 69.80614 | 8.90563 | 36743 ft | 488 kts | 3° |
| 2026-05-01 13:09 | 69.87316 | 8.93662 | 36730 ft | 488 kts | 4° |
| 2026-05-01 13:09 | 69.94019 | 8.96831 | 36722 ft | 488 kts | 4° |
| 2026-05-01 13:10 | 70.00735 | 9.00029 | 36701 ft | 490 kts | 4° |
| 2026-05-01 13:10 | 70.07474 | 9.02925 | 36723 ft | 489 kts | 1° |
| 2026-05-01 13:11 | 70.14223 | 9.05236 | 36712 ft | 488 kts | 1° |
| 2026-05-01 13:11 | 70.20968 | 9.07583 | 36714 ft | 488 kts | 1° |
| 2026-05-01 13:12 | 70.27714 | 9.09958 | 36706 ft | 488 kts | 1° |
| 2026-05-01 13:12 | 70.34467 | 9.12355 | 36691 ft | 490 kts | 1° |
| 2026-05-01 13:13 | 70.41233 | 9.14777 | 36701 ft | 490 kts | 2° |
| 2026-05-01 13:13 | 70.48001 | 9.17216 | 36698 ft | 490 kts | 2° |
| 2026-05-01 13:14 | 70.54771 | 9.19672 | 36693 ft | 490 kts | 2° |
| 2026-05-01 13:14 | 70.61543 | 9.22145 | 36692 ft | 490 kts | 2° |
| 2026-05-01 13:15 | 70.68320 | 9.24635 | 36674 ft | 491 kts | 2° |
| 2026-05-01 13:15 | 70.75098 | 9.27144 | 36686 ft | 491 kts | 2° |
| 2026-05-01 13:16 | 70.81837 | 9.29655 | 36676 ft | 491 kts | 2° |
| 2026-05-01 13:16 | 70.88612 | 9.32197 | 36677 ft | 491 kts | 2° |
| 2026-05-01 13:17 | 71.02173 | 9.37338 | 36668 ft | 491 kts | 2° |
| 2026-05-01 13:18 | 71.12342 | 9.41239 | 36666 ft | 491 kts | 2° |
| 2026-05-01 13:18 | 71.19117 | 9.43861 | 36666 ft | 491 kts | 2° |
| 2026-05-01 13:19 | 71.25900 | 9.46501 | 36666 ft | 491 kts | 2° |
| 2026-05-01 13:20 | 71.36074 | 9.50494 | 36664 ft | 490 kts | 2° |
| 2026-05-01 13:20 | 71.42850 | 9.53178 | 36659 ft | 491 kts | 2° |
| 2026-05-01 13:21 | 71.53019 | 9.57257 | 36662 ft | 491 kts | 2° |
| 2026-05-01 13:21 | 71.59798 | 9.59988 | 36663 ft | 491 kts | 2° |
| 2026-05-01 13:22 | 71.66578 | 9.62738 | 36659 ft | 491 kts | 2° |
| 2026-05-01 13:22 | 71.73361 | 9.65526 | 36652 ft | 492 kts | 3° |
| 2026-05-01 13:23 | 71.80145 | 9.68327 | 36659 ft | 492 kts | 3° |
| 2026-05-01 13:23 | 71.86933 | 9.71145 | 36666 ft | 492 kts | 3° |
| 2026-05-01 13:24 | 71.93715 | 9.73980 | 36662 ft | 492 kts | 3° |
| 2026-05-01 13:25 | 72.03850 | 9.78255 | 36644 ft | 492 kts | 3° |
| 2026-05-01 13:25 | 72.10628 | 9.81143 | 36671 ft | 491 kts | 3° |
| 2026-05-01 13:26 | 72.17411 | 9.84037 | 36673 ft | 491 kts | 3° |
| 2026-05-01 13:26 | 72.24189 | 9.86976 | 36674 ft | 492 kts | 3° |
| 2026-05-01 13:27 | 72.30970 | 9.89926 | 36672 ft | 492 kts | 3° |
| 2026-05-01 13:27 | 72.41134 | 9.94359 | 36677 ft | 490 kts | 4° |
| 2026-05-01 13:28 | 72.51265 | 9.98858 | 36678 ft | 490 kts | 4° |
| 2026-05-01 13:29 | 72.64784 | 10.04936 | 36675 ft | 490 kts | 4° |
| 2026-05-01 13:31 | 72.85036 | 10.14221 | 36679 ft | 489 kts | 4° |
| 2026-05-01 13:32 | 73.01901 | 10.22130 | 36676 ft | 489 kts | 4° |
| 2026-05-01 13:33 | 73.18734 | 10.30117 | 36674 ft | 488 kts | 5° |
| 2026-05-01 13:34 | 73.32196 | 10.36656 | 36676 ft | 488 kts | 5° |
| 2026-05-01 13:35 | 73.42291 | 10.41614 | 36658 ft | 488 kts | 5° |
| 2026-05-01 13:36 | 73.52371 | 10.46613 | 36671 ft | 488 kts | 5° |
| 2026-05-01 13:36 | 73.62450 | 10.51671 | 36668 ft | 488 kts | 5° |
| 2026-05-01 13:37 | 73.68034 | 10.54554 | 36666 ft | 488 kts | 5° |
| 2026-05-01 13:37 | 73.75840 | 10.58634 | 36666 ft | 488 kts | 5° |
| 2026-05-01 13:38 | 73.85906 | 10.63764 | 36659 ft | 487 kts | 6° |
| 2026-05-01 13:39 | 73.91526 | 10.66761 | 36664 ft | 487 kts | 5° |
| 2026-05-01 13:39 | 73.98199 | 10.70207 | 36640 ft | 488 kts | 6° |
| 2026-05-01 13:40 | 74.04912 | 10.73741 | 36661 ft | 487 kts | 6° |
| 2026-05-01 13:40 | 74.11626 | 10.77323 | 36643 ft | 488 kts | 6° |
| 2026-05-01 13:41 | 74.18337 | 10.80935 | 36657 ft | 487 kts | 6° |
| 2026-05-01 13:41 | 74.25040 | 10.84582 | 36648 ft | 487 kts | 6° |
| 2026-05-01 13:42 | 74.31748 | 10.88266 | 36652 ft | 487 kts | 6° |
| 2026-05-01 13:42 | 74.38456 | 10.91976 | 36644 ft | 487 kts | 6° |
| 2026-05-01 13:43 | 74.45157 | 10.95698 | 36645 ft | 487 kts | 6° |
| 2026-05-01 13:43 | 74.51868 | 10.99486 | 36641 ft | 487 kts | 6° |
| 2026-05-01 13:44 | 74.58570 | 11.03289 | 36638 ft | 487 kts | 6° |
| 2026-05-01 13:44 | 74.65271 | 11.07182 | 36638 ft | 487 kts | 6° |
| 2026-05-01 13:45 | 74.71980 | 11.11052 | 36638 ft | 487 kts | 6° |
| 2026-05-01 13:45 | 74.78678 | 11.14992 | 36650 ft | 487 kts | 6° |
| 2026-05-01 13:46 | 74.85382 | 11.18946 | 36628 ft | 487 kts | 7° |
| 2026-05-01 13:46 | 74.92080 | 11.22871 | 36634 ft | 487 kts | 6° |
| 2026-05-01 13:47 | 74.98781 | 11.26731 | 36628 ft | 487 kts | 7° |
| 2026-05-01 13:47 | 75.05435 | 11.30740 | 36628 ft | 487 kts | 7° |
| 2026-05-01 13:48 | 75.12132 | 11.34826 | 36619 ft | 487 kts | 7° |
| 2026-05-01 13:48 | 75.18825 | 11.39002 | 36632 ft | 487 kts | 7° |
| 2026-05-01 13:49 | 75.25522 | 11.43140 | 36610 ft | 487 kts | 7° |
| 2026-05-01 13:49 | 75.32220 | 11.47339 | 36600 ft | 487 kts | 7° |
| 2026-05-01 13:50 | 75.38919 | 11.51532 | 36612 ft | 487 kts | 7° |
| 2026-05-01 13:50 | 75.45619 | 11.55752 | 36601 ft | 487 kts | 7° |
| 2026-05-01 13:51 | 75.52307 | 11.60175 | 36600 ft | 488 kts | 8° |
| 2026-05-01 13:51 | 75.58999 | 11.64547 | 36600 ft | 487 kts | 8° |
| 2026-05-01 13:52 | 75.65693 | 11.68910 | 36585 ft | 487 kts | 7° |
| 2026-05-01 13:52 | 75.72392 | 11.73207 | 36582 ft | 487 kts | 7° |
| 2026-05-01 13:53 | 75.79040 | 11.77682 | 36588 ft | 487 kts | 8° |
| 2026-05-01 13:53 | 75.89110 | 11.84545 | 36587 ft | 487 kts | 8° |
| 2026-05-01 13:54 | 75.95754 | 11.88993 | 36582 ft | 487 kts | 8° |
| 2026-05-01 13:54 | 76.02440 | 11.93547 | 36584 ft | 487 kts | 8° |
| 2026-05-01 13:55 | 76.09125 | 11.98190 | 36571 ft | 487 kts | 8° |
| 2026-05-01 13:55 | 76.15809 | 12.02922 | 36573 ft | 487 kts | 8° |
| 2026-05-01 13:56 | 76.22488 | 12.07621 | 36569 ft | 487 kts | 8° |
| 2026-05-01 13:56 | 76.29168 | 12.12333 | 36563 ft | 487 kts | 8° |
| 2026-05-01 13:57 | 76.35848 | 12.17149 | 36555 ft | 487 kts | 9° |
| 2026-05-01 13:57 | 76.42518 | 12.22100 | 36554 ft | 487 kts | 9° |
| 2026-05-01 13:58 | 76.49192 | 12.26999 | 36556 ft | 487 kts | 8° |
| 2026-05-01 13:58 | 76.55872 | 12.31964 | 36550 ft | 487 kts | 9° |
| 2026-05-01 13:59 | 76.62548 | 12.37090 | 36554 ft | 487 kts | 9° |
| 2026-05-01 13:59 | 76.69163 | 12.42047 | 36515 ft | 469 kts | 9° |
| 2026-05-01 14:00 | 76.72267 | 12.44509 | 36469 ft | 451 kts | 9° |
| 2026-05-01 14:00 | 76.75304 | 12.46838 | 36490 ft | 435 kts | 9° |
| 2026-05-01 14:00 | 76.81177 | 12.51383 | 36540 ft | 431 kts | 10° |
| 2026-05-01 14:01 | 76.87104 | 12.55956 | 36550 ft | 434 kts | 9° |
| 2026-05-01 14:01 | 76.93048 | 12.60821 | 36554 ft | 434 kts | 9° |
| 2026-05-01 14:02 | 76.99000 | 12.65477 | 36568 ft | 435 kts | 9° |
| 2026-05-01 14:02 | 77.04948 | 12.70289 | 36527 ft | 434 kts | 10° |
| 2026-05-01 14:03 | 77.10891 | 12.75036 | 36525 ft | 434 kts | 10° |
| 2026-05-01 14:03 | 77.13862 | 12.77537 | 36300 ft | 438 kts | 10° |
| 2026-05-01 14:03 | 77.16938 | 12.79991 | 35016 ft | 457 kts | 9° |
| 2026-05-01 14:04 | 77.20108 | 12.82627 | 33748 ft | 470 kts | 10° |
| 2026-05-01 14:04 | 77.23361 | 12.85279 | 32294 ft | 480 kts | 10° |
| 2026-05-01 14:04 | 77.26633 | 12.87958 | 30863 ft | 488 kts | 10° |
| 2026-05-01 14:04 | 77.28904 | 12.89821 | 29874 ft | 493 kts | 10° |
| 2026-05-01 14:05 | 77.33405 | 12.93415 | 27604 ft | 498 kts | 10° |
| 2026-05-01 14:05 | 77.36784 | 12.96169 | 26122 ft | 481 kts | 11° |
| 2026-05-01 14:05 | 77.40033 | 12.99009 | 24111 ft | 470 kts | 11° |
| 2026-05-01 14:05 | 77.43211 | 13.01676 | 22535 ft | 455 kts | 11° |
| 2026-05-01 14:06 | 77.46213 | 13.04122 | 22055 ft | 427 kts | 11° |
| 2026-05-01 14:06 | 77.49077 | 13.06673 | 21557 ft | 411 kts | 12° |
| 2026-05-01 14:06 | 77.51873 | 13.09157 | 20991 ft | 398 kts | 12° |
| 2026-05-01 14:06 | 77.54514 | 13.11512 | 20477 ft | 387 kts | 12° |
| 2026-05-01 14:07 | 77.57149 | 13.13872 | 19633 ft | 387 kts | 12° |
| 2026-05-01 14:07 | 77.59805 | 13.16237 | 18633 ft | 390 kts | 12° |
| 2026-05-01 14:07 | 77.62448 | 13.18724 | 18011 ft | 383 kts | 13° |
| 2026-05-01 14:08 | 77.67503 | 13.23386 | 17462 ft | 356 kts | 14° |
| 2026-05-01 14:08 | 77.69953 | 13.25644 | 17469 ft | 363 kts | 12° |
| 2026-05-01 14:08 | 77.72453 | 13.27848 | 17507 ft | 367 kts | 13° |
| 2026-05-01 14:08 | 77.74975 | 13.30094 | 17512 ft | 370 kts | 13° |
| 2026-05-01 14:09 | 77.77506 | 13.32371 | 17503 ft | 371 kts | 12° |
| 2026-05-01 14:09 | 77.80056 | 13.34581 | 17183 ft | 374 kts | 12° |
| 2026-05-01 14:09 | 77.82591 | 13.36960 | 16807 ft | 369 kts | 13° |
| 2026-05-01 14:09 | 77.85104 | 13.39296 | 16444 ft | 366 kts | 13° |
| 2026-05-01 14:10 | 77.87595 | 13.41559 | 16084 ft | 363 kts | 13° |
| 2026-05-01 14:10 | 77.90074 | 13.43770 | 15675 ft | 362 kts | 13° |
| 2026-05-01 14:10 | 77.92547 | 13.46029 | 15161 ft | 361 kts | 13° |
| 2026-05-01 14:10 | 77.95003 | 13.48286 | 14660 ft | 357 kts | 13° |
| 2026-05-01 14:11 | 77.97432 | 13.50551 | 14164 ft | 354 kts | 13° |
| 2026-05-01 14:11 | 78.02297 | 13.55140 | 12417 ft | 358 kts | 13° |
| 2026-05-01 14:11 | 78.04751 | 13.57465 | 11413 ft | 360 kts | 13° |
| 2026-05-01 14:12 | 78.07115 | 13.61266 | 10341 ft | 358 kts | 29° |
| 2026-05-01 14:12 | 78.09235 | 13.67629 | 9228 ft | 359 kts | 35° |
| 2026-05-01 14:12 | 78.11298 | 13.73964 | 8231 ft | 341 kts | 33° |
| 2026-05-01 14:12 | 78.13304 | 13.79708 | 7204 ft | 332 kts | 31° |
| 2026-05-01 14:13 | 78.15255 | 13.85149 | 7019 ft | 313 kts | 31° |
| 2026-05-01 14:13 | 78.16487 | 13.88516 | 7108 ft | 303 kts | 30° |
| 2026-05-01 14:13 | 78.18988 | 13.95334 | 6713 ft | 310 kts | 30° |
| 2026-05-01 14:13 | 78.20837 | 14.00329 | 6285 ft | 306 kts | 30° |
| 2026-05-01 14:14 | 78.22690 | 14.05325 | 5842 ft | 302 kts | 30° |
| 2026-05-01 14:14 | 78.24516 | 14.10278 | 5386 ft | 297 kts | 31° |
| 2026-05-01 14:14 | 78.26237 | 14.15741 | 5021 ft | 293 kts | 36° |
| 2026-05-01 14:14 | 78.27891 | 14.21407 | 4617 ft | 282 kts | 35° |
| 2026-05-01 14:15 | 78.29444 | 14.26659 | 4281 ft | 259 kts | 36° |
| 2026-05-01 14:15 | 78.30604 | 14.33091 | 3947 ft | 251 kts | 66° |
| 2026-05-01 14:15 | 78.30805 | 14.41378 | 3664 ft | 244 kts | 102° |
| 2026-05-01 14:15 | 78.30249 | 14.49183 | 3377 ft | 240 kts | 112° |
| 2026-05-01 14:16 | 78.29633 | 14.56787 | 3026 ft | 239 kts | 109° |
| 2026-05-01 14:16 | 78.29128 | 14.64552 | 2686 ft | 237 kts | 106° |
| 2026-05-01 14:16 | 78.28678 | 14.72350 | 2375 ft | 236 kts | 105° |
| 2026-05-01 14:16 | 78.28245 | 14.80128 | 2092 ft | 234 kts | 104° |
| 2026-05-01 14:17 | 78.27837 | 14.87629 | 2059 ft | 223 kts | 104° |
| 2026-05-01 14:17 | 78.27453 | 14.94996 | 1908 ft | 221 kts | 105° |
| 2026-05-01 14:17 | 78.27071 | 15.02187 | 1771 ft | 214 kts | 104° |
| 2026-05-01 14:17 | 78.26720 | 15.09146 | 1603 ft | 203 kts | 104° |
| 2026-05-01 14:18 | 78.26368 | 15.15785 | 1340 ft | 198 kts | 105° |
| 2026-05-01 14:18 | 78.26020 | 15.22178 | 1078 ft | 191 kts | 106° |
| 2026-05-01 14:18 | 78.25666 | 15.28394 | 769 ft | 186 kts | 108° |
| 2026-05-01 14:18 | 78.25424 | 15.32332 | 654 ft | 178 kts | 109° |
| 2026-05-01 14:19 | 78.25006 | 15.39719 | 368 ft | 159 kts | 107° |
| 2026-05-01 14:19 | 78.24777 | 15.44245 | 677 ft | 123 kts | 108° |
| 2026-05-01 14:19 | 78.24580 | 15.48180 | 889 ft | 122 kts | 103° |
| 2026-05-01 14:19 | 78.24609 | 15.52949 | 1067 ft | 164 kts | 75° |
| 2026-05-01 14:20 | 78.25315 | 15.57940 | 1427 ft | 195 kts | 37° |
| 2026-05-01 14:20 | 78.28116 | 15.59404 | 1694 ft | 212 kts | 338° |
| 2026-05-01 14:20 | 78.29372 | 15.55738 | 1734 ft | 208 kts | 316° |
| 2026-05-01 14:21 | 78.30132 | 15.49937 | 1791 ft | 202 kts | 286° |
| 2026-05-01 14:21 | 78.30269 | 15.43219 | 1873 ft | 195 kts | 266° |
| 2026-05-01 14:21 | 78.30190 | 15.36550 | 1956 ft | 197 kts | 261° |
| 2026-05-01 14:22 | 78.29141 | 15.24107 | 1793 ft | 194 kts | 224° |
| 2026-05-01 14:22 | 78.28100 | 15.20443 | 1761 ft | 179 kts | 200° |
| 2026-05-01 14:22 | 78.26883 | 15.19558 | 1514 ft | 178 kts | 173° |
| 2026-05-01 14:22 | 78.25769 | 15.22065 | 1032 ft | 179 kts | 133° |
| 2026-05-01 14:23 | 78.25419 | 15.27373 | 782 ft | 165 kts | 84° |
| 2026-05-01 14:23 | 78.25387 | 15.32422 | 739 ft | 133 kts | 105° |
| 2026-05-01 14:23 | 78.25185 | 15.36566 | 465 ft | 121 kts | 108° |
| 2026-05-01 14:23 | 78.24953 | 15.40553 | 187 ft | 123 kts | 111° |
| 2026-05-01 14:24 | 78.24727 | 15.44467 | 88 ft | 107 kts | 103° |
| 2026-05-01 14:24 | 78.24554 | 15.47605 | 97 ft | 79 kts | 106° |
| 2026-05-01 14:24 | 78.24465 | 15.49227 | 94 ft | 24 kts | 106° |
| 2026-05-01 14:24 | 78.24457 | 15.49803 | 92 ft | 14 kts | 49° |
| 2026-05-01 14:25 | 78.24526 | 15.49920 | 94 ft | 6 kts | 15° |
| 2026-05-01 14:25 | 78.24566 | 15.49835 | 98 ft | 8 kts | 294° |
| 2026-05-01 14:25 | 78.24583 | 15.49549 | 96 ft | 9 kts | 285° |
| 2026-05-01 14:25 | 78.24600 | 15.49244 | 94 ft | 7 kts | 286° |
| 2026-05-01 14:26 | 78.24626 | 15.49187 | 95 ft | 3 kts | 32° |
| 2026-05-01 14:26 | 78.24631 | 15.49271 | 95 ft | 0 kts | 76° |